首页
METAR-TAF:

METAR-TAF

机场 :

Sheridan County Airport

Sheridan, 怀俄明州, 美国

纬度: 44-46-10N, 经度: 106-58-08W, 海拔: 1225米

当前天气观测

该预报发布于1小时和7分钟前的21:53 UTC
风速5节,风向
温度 30°C
湿度 22%
气压 1017 hPa
能見度: 16.1公里
天空无云

METAR: KSHR 152153Z AUTO 36005KT 10SM CLR 30/06 A3003 RMK AO2 SLP125 T03000061

时间: 17:00 (23:00 UTC)

预报

该预报发布于5小时和40分钟前的17:20 UTC
预报有效从15日的 18点(UTC)到 16日的 18点(UTC)
风速10节,风向北转西北
能見度: 8.0公里
散云层高于1500英尺
多云层高于15000英尺
短暂存在
从 15日的 19点(UTC)到 15日的 23点(UTC)
能見度: 3.2公里
多云层高于1500英尺
从 15日的 2300点(UTC)
风速6节,风向多变
能見度: 10公里
散云层高于1500英尺
多云层高于25000英尺
短暂存在
从 15日的 23点(UTC)到 16日的 02点(UTC)
能見度: 4.8公里
多云层高于1500英尺
烟,

TAF: KSHR 151720Z 1518/1618 33010KT 5SM FU SCT015 BKN150 TEMPO 1519/1523 2SM FU BKN015 FM152300 VRB06KT P6SM SCT015 BKN250 TEMPO 1523/1602 3SM FU BKN015

超过4000个机场的气象观测和天气预报(METAR&TAF报告)。

可查询的气象台以黄色和红色小点在地图上表示。

将鼠标移到小点上方,可查看气象台名称。

然后点击查看天气观测和预报。

如需切换地图:点击带黑十字的绿色按钮放大地图;点击带横线的绿色按钮缩小地图;或者点击绿色箭头查看邻近地区的地图。


METAR-TAF: